Time;durP1;ratioP1;P1;durP2;ratioP2;P2;SDS_P1;SDS_P2;PMS_P1;PMS_P2;Temp;Humidity;BMP_temperature;BMP_pressure;BME280_temperature;BME280_humidity;BME280_pressure;Samples;Min_cycle;Max_cycle;Signal;HPM_P1;HPM_P2
2022/06/24 00:00:02;;;;;;;16.02;9.40;;;;;;;20.71;86.89;100592.16;6307930;22;20090;-82
2022/06/24 00:02:31;;;;;;;18.17;11.48;;;;;;;20.65;89.50;100629.59;6307444;22;20478;-82
2022/06/24 00:04:57;;;;;;;22.95;14.30;;;;;;;20.54;90.17;100620.22;6307732;22;20087;-81
2022/06/24 00:07:26;;;;;;;21.77;14.15;;;;;;;20.47;90.49;100626.31;6307106;22;20103;-81
2022/06/24 00:09:51;;;;;;;15.77;10.93;;;;;;;20.51;87.55;100601.38;6307702;22;20500;-81
2022/06/24 00:12:19;;;;;;;18.38;10.90;;;;;;;20.54;85.75;100595.78;6308056;22;20068;-80
2022/06/24 00:14:55;;;;;;;18.15;10.43;;;;;;;20.55;85.41;100600.91;6307970;22;19999;-81
2022/06/24 00:17:23;;;;;;;16.98;9.05;;;;;;;20.61;83.67;100615.13;6308165;22;20314;-80
2022/06/24 00:19:58;;;;;;;18.05;11.05;;;;;;;20.65;85.30;100654.97;6308363;22;20015;-86
2022/06/24 00:22:51;;;;;;;18.52;11.52;;;;;;;19.51;86.45;100527.28;6306842;22;20011;-81
2022/06/24 00:25:24;;;;;;;22.20;13.40;;;;;;;19.60;87.46;100583.16;6304411;22;20003;-80
2022/06/24 00:28:02;;;;;;;25.10;17.77;;;;;;;20.34;90.12;100713.31;6307758;22;20021;-82
2022/06/24 00:31:01;;;;;;;36.35;24.63;;;;;;;20.12;92.79;100711.31;6307715;22;20010;-80
2022/06/24 00:33:33;;;;;;;44.60;31.35;;;;;;;19.99;98.17;100728.34;6295442;22;20195;-82
2022/06/24 00:36:01;;;;;;;43.42;32.63;;;;;;;19.83;100.00;100740.56;6279594;22;20039;-81
2022/06/24 00:38:29;;;;;;;47.47;33.17;;;;;;;19.62;100.00;100778.47;6307595;22;20320;-80
2022/06/24 00:41:15;;;;;;;40.83;28.25;;;;;;;19.43;100.00;100813.53;6307773;22;20371;-80
2022/06/24 00:43:43;;;;;;;23.60;15.32;;;;;;;19.06;98.40;100813.75;6279131;22;20007;-80
2022/06/24 00:46:12;;;;;;;20.48;12.43;;;;;;;18.78;97.61;100810.44;6307439;22;20332;-79
2022/06/24 00:48:49;;;;;;;17.95;9.50;;;;;;;18.34;98.60;100776.31;6307443;22;20007;-79
2022/06/24 00:51:16;;;;;;;14.45;5.63;;;;;;;18.20;97.31;100799.53;6307834;22;20082;-81
2022/06/24 00:53:48;;;;;;;8.30;4.22;;;;;;;17.95;97.22;100782.75;6307532;22;19999;-81
2022/06/24 00:56:17;;;;;;;9.93;3.75;;;;;;;17.81;98.03;100791.88;6307356;22;20025;-80
2022/06/24 00:58:53;;;;;;;9.57;3.38;;;;;;;17.71;97.94;100796.31;6307222;22;20078;-81
2022/06/24 01:01:26;;;;;;;7.10;2.75;;;;;;;17.65;97.37;100794.25;6307509;22;20009;-81
2022/06/24 01:03:54;;;;;;;9.80;3.10;;;;;;;17.56;98.09;100782.88;6307534;22;20019;-81
2022/06/24 01:06:19;;;;;;;4.93;2.50;;;;;;;17.66;97.19;100775.00;6307469;22;20003;-80
2022/06/24 01:08:45;;;;;;;8.85;2.70;;;;;;;17.70;96.89;100761.56;6307436;22;20004;-80
2022/06/24 01:11:11;;;;;;;6.03;2.75;;;;;;;17.53;96.71;100725.72;6307475;22;20003;-81
2022/06/24 01:13:36;;;;;;;6.82;2.42;;;;;;;17.71;95.79;100752.75;6307349;22;20014;-80
2022/06/24 01:16:01;;;;;;;8.48;3.00;;;;;;;17.73;95.64;100747.38;6307185;22;20433;-81
2022/06/24 01:18:27;;;;;;;5.22;2.17;;;;;;;17.71;94.16;100744.91;6307542;22;20031;-80
2022/06/24 01:20:52;;;;;;;6.28;2.40;;;;;;;17.69;95.32;100738.13;6307290;22;20070;-80
2022/06/24 01:23:24;;;;;;;5.03;2.00;;;;;;;17.68;94.46;100734.72;6307381;22;19999;-80
2022/06/24 01:25:50;;;;;;;6.40;2.05;;;;;;;17.61;93.22;100725.00;6307346;22;20068;-79
2022/06/24 01:28:15;;;;;;;5.30;1.92;;;;;;;17.62;94.09;100731.88;6307279;22;20003;-80
2022/06/24 01:30:40;;;;;;;6.75;2.20;;;;;;;17.64;95.09;100703.81;6306969;22;20004;-82
2022/06/24 01:33:06;;;;;;;7.55;2.22;;;;;;;17.51;94.90;100672.84;6307049;22;20356;-79
2022/06/24 01:35:32;;;;;;;6.50;2.50;;;;;;;17.66;93.31;100699.25;6307337;22;20003;-80
2022/06/24 01:37:57;;;;;;;7.13;2.15;;;;;;;17.68;92.93;100708.59;6306754;22;20440;-83
2022/06/24 01:40:22;;;;;;;7.95;2.35;;;;;;;17.66;94.85;100704.50;6279809;22;19999;-80
2022/06/24 01:42:48;;;;;;;5.13;2.35;;;;;;;17.57;94.90;100693.13;6305945;22;20007;-80
2022/06/24 01:45:13;;;;;;;6.20;2.60;;;;;;;17.65;95.14;100708.88;6307007;22;20737;-80
2022/06/24 01:47:38;;;;;;;4.93;2.17;;;;;;;17.66;94.84;100694.03;6306864;22;20023;-81
2022/06/24 01:50:04;;;;;;;6.97;2.63;;;;;;;17.49;95.08;100662.50;6307279;22;20000;-81
2022/06/24 01:52:30;;;;;;;6.47;2.58;;;;;;;17.42;95.95;100629.31;6307164;22;20302;-81
2022/06/24 01:54:55;;;;;;;6.50;2.60;;;;;;;17.73;96.33;100690.75;6306756;22;20033;-80
2022/06/24 01:57:20;;;;;;;7.38;2.90;;;;;;;17.41;96.36;100640.72;6307106;22;20290;-80
2022/06/24 01:59:46;;;;;;;7.18;2.88;;;;;;;17.70;96.11;100687.59;6307017;22;20484;-80
2022/06/24 02:02:11;;;;;;;6.03;2.75;;;;;;;17.69;96.05;100685.91;6306791;22;20027;-80
2022/06/24 02:04:36;;;;;;;6.05;2.75;;;;;;;17.43;95.98;100637.00;6306750;22;19999;-84
2022/06/24 02:07:02;;;;;;;6.15;2.97;;;;;;;17.70;95.71;100680.59;6306848;22;19999;-79
2022/06/24 02:09:27;;;;;;;7.47;3.17;;;;;;;17.61;95.40;100670.16;6306701;22;20003;-80
2022/06/24 02:14:37;;;;;;;6.53;2.97;;;;;;;17.64;95.58;100678.53;6306711;22;20106;-80
2022/06/24 02:17:02;;;;;;;6.55;3.00;;;;;;;17.66;95.01;100675.75;6306698;22;20003;-80
2022/06/24 02:19:28;;;;;;;5.43;2.50;;;;;;;17.43;94.35;100642.22;6306991;22;20003;-80
2022/06/24 02:21:53;;;;;;;6.60;2.97;;;;;;;17.64;94.67;100682.94;6306772;22;20337;-81
2022/06/24 02:24:18;;;;;;;8.30;2.97;;;;;;;17.69;95.45;100680.69;6306574;22;20004;-80
2022/06/24 02:26:45;;;;;;;6.15;2.80;;;;;;;17.40;95.36;100629.47;6306530;22;20030;-80
2022/06/24 02:29:11;;;;;;;8.30;2.65;;;;;;;17.55;94.57;100649.84;6306783;22;20433;-82
2022/06/24 02:31:38;;;;;;;6.47;3.10;;;;;;;17.80;95.09;100672.69;6306458;22;20000;-80
2022/06/24 02:34:03;;;;;;;6.43;2.90;;;;;;;17.70;95.06;100653.66;6306721;22;20005;-80
2022/06/24 02:36:29;;;;;;;7.25;3.67;;;;;;;17.81;95.01;100679.56;6306380;22;20090;-80
2022/06/24 02:38:54;;;;;;;6.13;3.03;;;;;;;17.82;95.35;100677.78;6306199;22;19999;-80
2022/06/24 02:41:19;;;;;;;6.43;2.70;;;;;;;17.60;93.69;100645.00;6306825;22;19995;-79
2022/06/24 02:43:45;;;;;;;5.30;3.03;;;;;;;17.63;94.91;100655.16;6306405;22;20007;-80
2022/06/24 02:46:16;;;;;;;4.82;2.70;;;;;;;17.73;94.12;100671.63;6306542;22;20038;-78
2022/06/24 02:48:42;;;;;;;7.70;3.10;;;;;;;17.56;94.26;100643.66;6306673;22;19996;-79
2022/06/24 02:51:10;;;;;;;6.90;3.35;;;;;;;17.68;96.72;100673.81;6306610;22;20014;-80
2022/06/24 02:53:36;;;;;;;5.38;3.13;;;;;;;17.51;95.79;100654.56;6306467;22;20480;-80
2022/06/24 02:56:04;;;;;;;6.35;2.83;;;;;;;17.36;95.79;100633.31;6306334;22;20133;-79
2022/06/24 02:58:33;;;;;;;5.60;2.97;;;;;;;17.40;95.51;100628.63;6306089;22;20003;-80
2022/06/24 03:00:59;;;;;;;5.45;2.90;;;;;;;17.66;96.39;100666.13;6279596;22;20003;-80
2022/06/24 03:03:25;;;;;;;8.40;3.90;;;;;;;17.57;96.14;100640.06;6306685;22;20053;-82
2022/06/24 03:05:51;;;;;;;7.22;3.40;;;;;;;17.48;95.80;100613.88;6306488;22;20007;-80
2022/06/24 03:08:21;;;;;;;6.32;3.33;;;;;;;17.71;96.64;100645.66;6308710;22;19999;-80
2022/06/24 03:10:47;;;;;;;7.45;4.10;;;;;;;17.62;97.03;100625.63;6308414;22;20014;-80
2022/06/24 03:13:12;;;;;;;8.50;3.60;;;;;;;17.68;96.83;100638.06;6308327;22;20003;-81
2022/06/24 03:15:48;;;;;;;8.73;3.70;;;;;;;17.67;97.05;100620.78;6307650;22;20113;-80
2022/06/24 03:18:14;;;;;;;7.65;3.63;;;;;;;17.71;96.96;100619.56;6308344;22;20425;-82
2022/06/24 03:20:43;;;;;;;7.80;3.67;;;;;;;17.76;96.24;100617.31;6308492;22;19999;-82
2022/06/24 03:23:08;;;;;;;8.38;3.92;;;;;;;17.72;96.66;100617.75;6280598;22;20086;-80
2022/06/24 03:25:34;;;;;;;9.82;4.13;;;;;;;17.54;96.00;100591.59;6280678;22;20046;-80
2022/06/24 03:28:04;;;;;;;6.88;3.55;;;;;;;17.63;96.53;100602.94;6280276;22;20007;-80
2022/06/24 03:30:31;;;;;;;5.97;3.50;;;;;;;17.64;96.88;100596.75;6308341;22;20000;-80
2022/06/24 03:32:57;;;;;;;6.43;3.47;;;;;;;17.59;96.36;100594.56;6280992;22;20249;-81
2022/06/24 03:35:24;;;;;;;7.18;3.60;;;;;;;17.20;96.07;100540.00;6308215;22;20333;-81
2022/06/24 03:37:49;;;;;;;8.60;4.55;;;;;;;17.18;96.26;100535.88;6308399;22;20007;-80
2022/06/24 03:40:15;;;;;;;7.25;4.45;;;;;;;17.44;96.85;100583.00;6308449;22;20007;-80
2022/06/24 03:42:40;;;;;;;8.93;4.70;;;;;;;17.39;98.02;100582.59;6308076;22;20484;-79
2022/06/24 03:45:06;;;;;;;8.77;4.93;;;;;;;17.25;98.41;100570.88;6308175;22;20003;-80
2022/06/24 03:47:32;;;;;;;7.45;5.00;;;;;;;17.37;98.34;100595.00;6308480;22;20049;-80
2022/06/24 03:49:57;;;;;;;8.57;5.03;;;;;;;17.41;98.01;100591.94;6308514;22;20421;-79
2022/06/24 03:52:22;;;;;;;9.65;4.93;;;;;;;17.16;97.86;100559.53;6280383;22;20003;-80
2022/06/24 03:54:48;;;;;;;7.53;5.25;;;;;;;17.15;98.99;100554.47;6308171;22;20098;-80
2022/06/24 03:57:13;;;;;;;9.35;5.55;;;;;;;17.37;97.87;100582.75;6308002;22;20065;-80
2022/06/24 03:59:38;;;;;;;7.63;5.20;;;;;;;17.52;98.16;100600.56;6308401;22;20474;-80
2022/06/24 04:02:04;;;;;;;9.70;5.07;;;;;;;17.50;98.12;100579.78;6308348;22;20007;-79
2022/06/24 04:04:29;;;;;;;8.48;5.30;;;;;;;17.53;97.96;100599.56;6308390;22;20081;-80
2022/06/24 04:06:54;;;;;;;8.68;6.03;;;;;;;17.57;98.27;100614.78;6308448;22;20473;-79
2022/06/24 04:09:20;;;;;;;10.05;5.97;;;;;;;17.21;98.71;100561.72;6308207;22;20011;-79
2022/06/24 04:11:45;;;;;;;9.30;6.35;;;;;;;17.60;99.57;100626.72;6279550;22;20025;-79
2022/06/24 04:14:10;;;;;;;12.63;6.43;;;;;;;17.58;99.09;100633.88;6307730;22;20006;-80
2022/06/24 04:16:36;;;;;;;10.18;6.47;;;;;;;17.42;99.58;100603.22;6307533;22;20011;-79
2022/06/24 04:19:01;;;;;;;11.40;7.10;;;;;;;17.63;99.29;100637.72;6307081;22;20038;-79
2022/06/24 04:21:27;;;;;;;8.57;6.03;;;;;;;17.64;100.00;100641.97;6308057;22;20026;-79
2022/06/24 04:23:53;;;;;;;8.82;6.28;;;;;;;17.62;100.00;100645.69;6308007;22;20000;-80
2022/06/24 04:26:19;;;;;;;9.02;6.10;;;;;;;17.54;100.00;100643.81;6307929;22;20011;-79
2022/06/24 04:28:45;;;;;;;8.32;5.80;;;;;;;17.64;100.00;100648.97;6307757;22;20060;-79
2022/06/24 04:31:11;;;;;;;9.10;6.40;;;;;;;17.63;100.00;100644.72;6307430;22;20010;-79
2022/06/24 04:33:37;;;;;;;8.38;6.40;;;;;;;17.65;100.00;100650.63;6307656;22;19999;-80
2022/06/24 04:36:09;;;;;;;7.97;6.50;;;;;;;17.54;100.00;100640.38;6307545;22;20007;-79
2022/06/24 04:38:34;;;;;;;;;;;;;;;17.73;98.32;100648.94;6308439;22;20014;-80
2022/06/24 04:40:59;;;;;;;10.52;6.68;;;;;;;17.72;100.00;100649.09;6307388;22;19902;-81
2022/06/24 04:43:24;;;;;;;9.57;6.32;;;;;;;17.65;100.00;100637.56;6306806;22;20353;-81
2022/06/24 04:45:50;;;;;;;9.77;6.78;;;;;;;17.76;100.00;100642.59;6279592;22;20052;-79
2022/06/24 04:48:15;;;;;;;9.07;6.50;;;;;;;17.62;100.00;100612.56;6307935;22;20125;-79
2022/06/24 04:50:41;;;;;;;11.70;7.13;;;;;;;17.93;100.00;100651.44;6307753;22;20074;-79
2022/06/24 04:53:06;;;;;;;10.60;6.78;;;;;;;17.85;99.55;100630.44;6308070;22;20041;-80
2022/06/24 04:55:31;;;;;;;9.35;6.60;;;;;;;17.94;99.77;100637.41;6279874;22;20073;-80
2022/06/24 04:57:57;;;;;;;10.88;7.05;;;;;;;17.99;99.85;100640.38;6307236;22;20045;-80
2022/06/24 05:00:22;;;;;;;10.63;6.75;;;;;;;18.00;99.13;100628.97;6307501;22;20031;-80
2022/06/24 05:02:48;;;;;;;8.85;6.50;;;;;;;18.09;98.46;100643.72;6307679;22;19999;-80
2022/06/24 05:05:13;;;;;;;9.55;6.80;;;;;;;18.14;99.37;100643.31;6307949;22;20011;-81
2022/06/24 05:07:39;;;;;;;8.93;6.90;;;;;;;18.23;99.50;100645.00;6307726;22;20364;-82
2022/06/24 05:10:06;;;;;;;10.30;7.40;;;;;;;18.04;98.70;100606.78;6280193;22;20048;-80
2022/06/24 05:12:31;;;;;;;8.77;6.57;;;;;;;18.35;99.39;100646.41;6307183;22;20003;-81
2022/06/24 05:14:57;;;;;;;10.18;7.28;;;;;;;18.09;98.61;100595.88;6279643;22;20016;-81
2022/06/24 05:17:23;;;;;;;9.85;7.55;;;;;;;18.45;98.87;100643.72;6307554;22;20011;-80
2022/06/24 05:19:49;;;;;;;10.75;7.53;;;;;;;18.25;98.61;100611.69;6307625;22;20023;-83
2022/06/24 05:22:14;;;;;;;11.43;7.78;;;;;;;18.40;97.62;100640.75;6307420;22;20321;-82
2022/06/24 05:24:39;;;;;;;21.13;8.02;;;;;;;18.43;98.48;100641.25;6307731;22;20082;-81
2022/06/24 05:27:05;;;;;;;11.07;7.70;;;;;;;18.46;97.48;100648.78;6307277;22;20409;-81
2022/06/24 05:29:30;;;;;;;11.18;8.00;;;;;;;18.35;97.33;100621.09;6307108;22;20078;-81
2022/06/24 05:31:55;;;;;;;10.55;7.65;;;;;;;18.47;97.24;100649.59;6307681;22;20016;-81
2022/06/24 05:34:21;;;;;;;11.43;7.93;;;;;;;18.16;97.43;100597.75;6279030;22;20015;-81
2022/06/24 05:36:46;;;;;;;11.18;7.85;;;;;;;18.08;98.30;100587.22;6307646;22;20007;-80
2022/06/24 05:39:11;;;;;;;11.32;7.97;;;;;;;18.22;98.27;100617.25;6307702;22;20413;-81
2022/06/24 05:41:39;;;;;;;11.45;8.10;;;;;;;18.28;98.39;100642.75;6307088;22;20003;-84
2022/06/24 05:44:04;;;;;;;12.07;9.25;;;;;;;18.28;98.63;100645.38;6307095;22;20109;-83
2022/06/24 05:46:30;;;;;;;11.43;9.13;;;;;;;18.24;99.53;100654.50;6307127;22;20007;-82
2022/06/24 05:48:56;;;;;;;12.95;9.05;;;;;;;18.20;99.52;100658.41;6279549;22;20026;-81
2022/06/24 05:51:21;;;;;;;12.80;9.75;;;;;;;18.18;100.00;100653.28;6307152;22;20007;-83
2022/06/24 05:58:15;;;;;;;13.15;9.80;;;;;;;18.26;99.44;100636.88;6307595;22;20026;-81
2022/06/24 06:00:39;;;;;;;12.77;10.52;;;;;;;16.89;99.42;100432.53;6306257;22;20069;-82
2022/06/24 06:03:05;;;;;;;13.27;10.27;;;;;;;16.97;99.38;100465.72;6307275;22;20003;-80
2022/06/24 06:05:35;;;;;;;12.20;10.15;;;;;;;17.86;100.00;100619.84;6307028;22;20003;-82
2022/06/24 06:08:01;;;;;;;14.05;11.23;;;;;;;18.21;100.00;100665.25;6306370;22;19999;-82
2022/06/24 06:10:35;;;;;;;13.38;10.95;;;;;;;17.44;100.00;100530.78;6279536;22;20072;-81
2022/06/24 06:13:16;;;;;;;12.63;11.30;;;;;;;17.13;100.00;100467.69;6306994;22;20003;-81
2022/06/24 06:15:57;;;;;;;15.05;11.93;;;;;;;17.20;100.00;100471.31;6279016;22;20022;-80
2022/06/24 06:18:22;;;;;;;20.02;12.70;;;;;;;17.88;99.95;100570.06;6279050;22;20078;-81
2022/06/24 06:20:48;;;;;;;15.80;12.57;;;;;;;17.76;100.00;100535.53;6306839;22;20033;-81
2022/06/24 06:23:16;;;;;;;14.45;12.10;;;;;;;17.49;99.59;100477.16;6306755;22;20034;-82
2022/06/24 06:25:48;;;;;;;17.50;12.88;;;;;;;18.68;99.60;100649.28;6306899;22;20076;-80
2022/06/24 06:28:13;;;;;;;14.48;12.20;;;;;;;18.85;99.56;100669.38;6306317;22;20075;-80
2022/06/24 06:30:41;;;;;;;15.20;12.07;;;;;;;18.67;99.05;100624.94;6306502;22;20025;-81
2022/06/24 06:33:06;;;;;;;14.13;11.95;;;;;;;18.85;97.34;100667.56;6307117;22;20468;-81
2022/06/24 06:35:31;;;;;;;16.50;12.70;;;;;;;18.89;98.47;100670.72;6306464;22;20011;-83
2022/06/24 06:37:57;;;;;;;17.35;12.15;;;;;;;18.80;98.33;100662.00;6307127;22;20004;-84
2022/06/24 06:40:22;;;;;;;14.15;12.35;;;;;;;18.90;98.76;100672.34;6306678;22;19999;-78
2022/06/24 06:42:52;;;;;;;15.52;12.60;;;;;;;18.69;99.04;100641.31;6308618;22;20003;-79
2022/06/24 06:45:17;;;;;;;15.85;12.68;;;;;;;18.98;98.75;100672.41;6309193;22;20360;-80
2022/06/24 06:47:43;;;;;;;17.55;13.13;;;;;;;19.11;98.16;100679.84;6309152;22;20060;-80
2022/06/24 06:50:09;;;;;;;16.73;13.43;;;;;;;19.25;96.96;100681.84;6309243;22;20003;-83
2022/06/24 06:52:34;;;;;;;17.30;14.10;;;;;;;19.14;96.67;100655.94;6309051;22;20325;-82
2022/06/24 06:55:02;;;;;;;17.73;13.00;;;;;;;18.98;95.98;100633.16;6308972;22;20027;-81
2022/06/24 06:57:27;;;;;;;16.00;12.98;;;;;;;19.25;95.57;100678.41;6280826;22;19999;-81
2022/06/24 06:59:52;;;;;;;17.15;13.90;;;;;;;19.04;95.97;100656.06;6308785;22;20010;-80
2022/06/24 07:02:18;;;;;;;17.13;13.57;;;;;;;18.77;96.93;100630.06;6308608;22;20031;-79
2022/06/24 07:04:43;;;;;;;17.30;14.45;;;;;;;18.93;97.09;100666.81;6281284;22;20429;-80
2022/06/24 07:07:09;;;;;;;17.98;14.55;;;;;;;18.62;98.23;100622.75;6308678;22;20436;-79
2022/06/24 07:09:34;;;;;;;16.40;14.60;;;;;;;18.86;98.93;100668.38;6281032;22;20042;-78
2022/06/24 07:11:59;;;;;;;21.25;15.35;;;;;;;18.82;99.75;100667.06;6308647;22;20007;-78
2022/06/24 07:14:25;;;;;;;21.17;15.85;;;;;;;18.80;100.00;100671.63;6308678;22;20007;-84
2022/06/24 07:16:50;;;;;;;19.20;16.60;;;;;;;18.66;100.00;100649.44;6308281;22;20012;-77
2022/06/24 07:19:15;;;;;;;19.38;16.63;;;;;;;18.83;100.00;100666.09;6308250;22;20325;-78
2022/06/24 07:21:41;;;;;;;21.05;16.73;;;;;;;18.83;99.96;100656.44;6308589;22;20014;-78
2022/06/24 07:24:06;;;;;;;21.20;17.92;;;;;;;18.89;99.46;100658.44;6308848;22;19999;-78
2022/06/24 07:26:31;;;;;;;20.85;16.55;;;;;;;18.81;100.00;100626.19;6308768;22;20007;-78
2022/06/24 07:28:57;;;;;;;21.90;16.67;;;;;;;18.85;99.90;100620.47;6308915;22;20007;-78
2022/06/24 07:31:22;;;;;;;18.42;15.77;;;;;;;19.01;97.79;100640.69;6308738;22;20004;-80
2022/06/24 07:33:47;;;;;;;18.35;14.60;;;;;;;18.80;97.61;100593.16;6308606;22;20103;-79
2022/06/24 07:36:13;;;;;;;16.30;14.35;;;;;;;19.22;97.78;100637.66;6308711;22;20007;-80
2022/06/24 07:38:39;;;;;;;20.00;15.02;;;;;;;19.11;96.40;100591.66;6309203;22;20010;-80
2022/06/24 07:41:04;;;;;;;17.35;13.05;;;;;;;19.15;96.45;100595.59;6308808;22;19999;-78
2022/06/24 07:43:30;;;;;;;15.52;13.68;;;;;;;19.35;95.55;100622.34;6309354;22;20000;-90
2022/06/24 07:45:56;;;;;;;17.52;13.77;;;;;;;19.44;95.44;100633.66;6308680;22;19995;-79
2022/06/24 07:48:23;;;;;;;14.68;12.77;;;;;;;19.52;95.45;100648.59;6308699;22;20435;-81
2022/06/24 07:50:49;;;;;;;15.70;13.18;;;;;;;19.28;94.10;100620.53;6308091;22;20003;-80
2022/06/24 07:53:14;;;;;;;17.05;13.00;;;;;;;19.45;95.22;100664.09;6308207;22;19996;-82
2022/06/24 07:58:24;;;;;;;16.42;13.82;;;;;;;19.37;96.68;100658.81;6308273;22;20069;-83
2022/06/24 08:00:50;;;;;;;17.67;14.40;;;;;;;19.01;97.05;100603.22;6308045;22;20003;-80
2022/06/24 08:03:15;;;;;;;16.67;14.55;;;;;;;19.25;96.96;100649.63;6307924;22;20003;-81
2022/06/24 08:05:43;;;;;;;16.88;14.98;;;;;;;19.27;96.85;100663.38;6307677;22;20013;-81
2022/06/24 08:11:12;;;;;;;17.85;14.68;;;;;;;19.07;97.82;100647.06;6307761;22;20026;-79
2022/06/24 08:13:37;;;;;;;18.10;15.48;;;;;;;19.14;98.34;100682.94;6307912;22;20341;-81
2022/06/24 08:16:06;;;;;;;22.67;16.17;;;;;;;19.11;98.77;100683.28;6307207;22;20340;-81
2022/06/24 08:18:31;;;;;;;19.98;16.63;;;;;;;19.17;98.74;100668.72;6255524;22;20007;-79
2022/06/24 08:20:57;;;;;;;19.67;17.58;;;;;;;19.34;97.98;100670.44;6308457;22;20004;-82
2022/06/24 08:23:22;;;;;;;18.45;16.45;;;;;;;19.53;98.16;100672.00;6308461;22;19999;-81
2022/06/24 08:25:47;;;;;;;19.85;17.75;;;;;;;19.39;98.17;100631.53;6308018;22;20071;-79
2022/06/24 08:28:13;;;;;;;21.02;18.80;;;;;;;19.37;96.55;100624.78;6306495;22;20474;-81
2022/06/24 08:30:38;;;;;;;21.17;18.40;;;;;;;19.44;96.33;100610.91;6307115;22;20004;-81
2022/06/24 08:33:06;;;;;;;21.63;19.42;;;;;;;19.85;96.25;100644.28;6307118;22;19999;-82
2022/06/24 08:35:31;;;;;;;23.77;19.20;;;;;;;19.77;96.03;100632.81;6308026;22;20093;-84
2022/06/24 08:38:00;;;;;;;24.20;20.38;;;;;;;19.83;96.47;100673.25;6307984;22;20083;-81
2022/06/24 08:40:28;;;;;;;25.90;21.10;;;;;;;19.77;96.77;100673.91;6307630;22;20010;-82
2022/06/24 08:42:56;;;;;;;27.33;22.45;;;;;;;19.96;96.40;100664.91;6307490;22;20329;-83
2022/06/24 08:45:22;;;;;;;28.40;24.00;;;;;;;20.24;94.17;100662.81;6307780;22;20051;-83
2022/06/24 08:47:48;;;;;;;28.90;24.30;;;;;;;19.73;94.75;100538.97;6307635;22;20010;-83
2022/06/24 08:50:21;;;;;;;25.52;22.83;;;;;;;20.05;91.68;100543.38;6307665;22;20424;-82
2022/06/24 08:53:01;;;;;;;26.10;22.48;;;;;;;20.04;92.48;100474.41;6307656;22;19999;-81
2022/06/24 08:55:58;;;;;;;26.77;22.58;;;;;;;21.38;89.16;100625.91;6307561;22;20078;-82
2022/06/24 08:58:37;;;;;;;25.35;21.80;;;;;;;21.62;86.73;100598.69;6280258;22;20007;-81
2022/06/24 09:01:24;;;;;;;23.83;20.42;;;;;;;22.29;82.59;100660.19;6307316;22;20004;-82
2022/06/24 09:04:21;;;;;;;22.60;20.15;;;;;;;22.61;81.73;100659.09;6307183;22;19995;-82
2022/06/24 09:07:22;;;;;;;21.92;18.23;;;;;;;23.08;80.88;100657.16;6307860;22;20031;-81
2022/06/24 09:10:23;;;;;;;21.88;18.88;;;;;;;23.25;79.32;100652.50;6307634;22;20076;-81
2022/06/24 09:12:49;;;;;;;22.02;19.58;;;;;;;22.24;77.14;100473.16;6306252;22;20048;-77
2022/06/24 09:15:26;;;;;;;20.85;17.95;;;;;;;22.46;76.81;100474.03;6305862;22;20123;-77
2022/06/24 09:17:59;;;;;;;19.05;16.75;;;;;;;22.47;75.84;100457.25;6279920;22;20096;-76
2022/06/24 09:20:33;;;;;;;19.40;16.95;;;;;;;23.65;76.69;100645.91;6307638;22;20082;-77
2022/06/24 09:23:07;;;;;;;18.48;16.45;;;;;;;23.73;75.26;100651.91;6307531;22;20005;-79
2022/06/24 09:25:50;;;;;;;17.88;14.65;;;;;;;23.71;73.88;100638.09;6307417;22;20003;-79
2022/06/24 09:28:24;;;;;;;18.00;12.52;;;;;;;23.68;72.25;100670.09;6307045;22;20505;-78
2022/06/24 09:30:50;;;;;;;15.15;11.68;;;;;;;23.82;76.06;100663.16;6306989;22;20421;-87
2022/06/24 09:33:17;;;;;;;15.60;12.85;;;;;;;24.15;75.42;100641.53;6306019;22;20003;-87
2022/06/24 09:35:43;;;;;;;14.80;10.85;;;;;;;24.31;70.94;100622.84;6307241;22;20375;-83
2022/06/24 09:38:08;;;;;;;13.07;10.55;;;;;;;24.45;70.17;100636.94;6306643;22;20000;-87
2022/06/24 09:40:34;;;;;;;11.75;8.80;;;;;;;24.28;69.67;100612.63;6306880;22;20101;-84
2022/06/24 09:46:50;;;;;;;10.80;8.65;;;;;;;23.36;71.23;100491.31;6212405;23;20023;-82
2022/06/24 09:49:34;;;;;;;11.65;8.15;;;;;;;24.37;69.05;100659.00;6213001;23;20366;-87
2022/06/24 09:52:00;;;;;;;11.05;9.10;;;;;;;23.92;69.62;100587.16;6212800;23;20027;-85
2022/06/24 09:54:26;;;;;;;11.55;9.95;;;;;;;24.27;67.90;100651.38;6212495;23;20020;-84
2022/06/24 09:56:52;;;;;;;13.20;10.25;;;;;;;24.15;69.37;100639.72;6212496;23;20016;-87
2022/06/24 10:02:04;;;;;;;16.33;13.35;;;;;;;24.28;67.43;100658.28;6211724;23;20059;-74
2022/06/24 10:04:31;;;;;;;14.07;12.57;;;;;;;24.57;68.72;100654.69;6212370;23;20345;-80
2022/06/24 10:06:57;;;;;;;18.90;14.63;;;;;;;24.57;66.04;100648.59;6212130;23;20000;-75
2022/06/24 10:09:26;;;;;;;19.95;17.85;;;;;;;24.95;68.19;100653.53;6212240;23;20013;-84
2022/06/24 10:11:54;;;;;;;21.48;18.20;;;;;;;25.25;69.45;100625.03;6212207;23;20047;-84
2022/06/24 10:14:20;;;;;;;19.20;17.20;;;;;;;25.22;65.80;100622.78;6212046;23;20442;-81
2022/06/24 10:16:48;;;;;;;19.90;17.75;;;;;;;25.05;64.94;100638.97;6241538;22;20110;-87
2022/06/24 10:19:16;;;;;;;20.17;18.02;;;;;;;25.05;66.55;100652.19;6306701;22;20121;-83
2022/06/24 10:21:42;;;;;;;21.27;18.98;;;;;;;25.18;65.09;100654.09;6306249;22;20061;-88
2022/06/24 10:24:14;;;;;;;22.90;20.50;;;;;;;25.25;66.51;100652.28;6306765;22;20004;-83
2022/06/24 10:26:44;;;;;;;24.67;20.55;;;;;;;25.00;64.78;100644.00;6306918;22;20116;-80
2022/06/24 10:29:13;;;;;;;23.08;20.77;;;;;;;24.58;67.83;100652.88;6306749;22;20452;-78
2022/06/24 10:31:56;;;;;;;24.38;21.88;;;;;;;24.27;70.13;100656.66;6306646;22;19999;-79
2022/06/24 10:34:31;;;;;;;27.92;25.05;;;;;;;23.90;71.51;100660.41;6306894;22;20352;-81
2022/06/24 10:36:56;;;;;;;29.27;26.33;;;;;;;23.59;73.15;100663.28;6306965;22;20086;-78
2022/06/24 10:39:23;;;;;;;33.30;29.67;;;;;;;22.97;75.50;100665.50;6307023;22;20038;-79
2022/06/24 10:42:21;;;;;;;33.45;27.13;;;;;;;21.91;78.09;100680.31;6305041;22;20586;-78
2022/06/24 10:44:55;;;;;;;23.15;20.30;;;;;;;20.71;82.14;100698.94;6187096;22;20103;-77
2022/06/24 10:47:28;;;;;;;25.50;20.75;;;;;;;20.01;87.34;100715.06;6212125;23;20008;-78
2022/06/24 10:50:03;;;;;;;18.45;12.25;;;;;;;19.44;88.93;100723.50;6186462;23;20012;-79
2022/06/24 10:52:47;;;;;;;17.95;9.63;;;;;;;18.98;90.21;100710.84;6212339;23;20079;-80
2022/06/24 10:55:16;;;;;;;14.23;9.38;;;;;;;18.75;93.85;100706.09;6212224;23;20009;-81
2022/06/24 10:57:52;;;;;;;13.50;9.65;;;;;;;18.69;94.68;100695.44;6212490;23;20032;-79
2022/06/24 11:00:54;;;;;;;14.05;10.13;;;;;;;18.76;95.45;100705.09;6212280;23;20403;-77
2022/06/24 11:03:24;;;;;;;;;;;;;;;18.84;91.62;100712.19;6182253;23;20473;-74
2022/06/24 11:05:51;;;;;;;14.68;9.73;;;;;;;18.77;94.42;100687.63;6182091;23;19909;-75
2022/06/24 11:08:20;;;;;;;15.52;9.90;;;;;;;18.31;94.69;100596.25;6182761;23;20009;-75
2022/06/24 11:10:47;;;;;;;11.90;8.55;;;;;;;19.04;94.08;100691.88;6182309;23;20017;-76
2022/06/24 11:13:13;;;;;;;11.70;8.27;;;;;;;19.20;93.71;100692.81;6182510;23;20009;-76
2022/06/24 11:15:45;;;;;;;10.63;7.57;;;;;;;19.27;92.70;100695.63;6181940;23;20105;-77
2022/06/24 11:18:24;;;;;;;16.13;8.30;;;;;;;19.39;93.06;100681.28;6181771;23;20021;-75
2022/06/24 11:20:54;;;;;;;10.65;7.85;;;;;;;19.54;91.02;100680.66;6182049;23;20080;-76
2022/06/24 11:23:21;;;;;;;10.38;7.45;;;;;;;19.74;88.84;100676.84;6181905;23;20025;-76
2022/06/24 11:25:49;;;;;;;13.40;7.40;;;;;;;19.98;88.54;100678.72;6181781;23;20478;-76
2022/06/24 11:28:26;;;;;;;10.25;7.32;;;;;;;20.27;88.33;100673.84;6158345;23;20016;-77
2022/06/24 11:30:55;;;;;;;11.13;8.25;;;;;;;20.59;87.69;100677.47;6183817;23;20013;-77
2022/06/24 11:33:22;;;;;;;11.65;7.50;;;;;;;20.80;85.90;100654.13;6183724;23;20009;-76
2022/06/24 11:35:48;;;;;;;10.48;8.18;;;;;;;21.18;85.46;100676.19;6184020;23;20040;-77
2022/06/24 11:38:15;;;;;;;11.73;7.78;;;;;;;21.53;85.80;100671.47;6183926;23;20499;-77
2022/06/24 11:40:41;;;;;;;10.70;7.28;;;;;;;21.90;83.74;100662.06;6273191;22;20042;-77